createdAt,value
2018-05-23T00:02:21.391Z,90.60
2018-05-23T00:04:47.332Z,91.10
2018-05-23T00:07:13.301Z,90.90
2018-05-23T00:09:40.083Z,92.80
2018-05-23T00:12:06.051Z,92.70
2018-05-23T00:14:32.026Z,91.10
2018-05-23T00:16:58.759Z,91.20
2018-05-23T00:19:24.714Z,91.20
2018-05-23T00:21:51.439Z,91.20
2018-05-23T00:24:17.434Z,91.20
2018-05-23T00:26:43.406Z,93.50
2018-05-23T00:29:09.914Z,93.70
2018-05-23T00:31:36.060Z,93.70
2018-05-23T00:34:02.074Z,95.60
2018-05-23T00:36:28.990Z,93.40
2018-05-23T00:38:54.985Z,93.40
2018-05-23T00:41:20.938Z,92.40
2018-05-23T00:43:46.896Z,92.50
2018-05-23T00:46:12.907Z,95.20
2018-05-23T00:48:38.999Z,95.70
2018-05-23T00:51:04.993Z,95.00
2018-05-23T00:53:30.939Z,94.40
2018-05-23T00:55:56.891Z,95.40
2018-05-23T00:58:22.855Z,95.20
2018-05-23T01:00:49.591Z,97.40
2018-05-23T01:03:15.534Z,97.40
2018-05-23T01:05:41.778Z,99.00
2018-05-23T01:08:08.584Z,96.70
2018-05-23T01:10:34.580Z,96.60
2018-05-23T01:13:00.602Z,97.00
2018-05-23T01:15:26.620Z,97.90
2018-05-23T01:17:52.626Z,96.30
2018-05-23T01:20:18.591Z,94.40
2018-05-23T01:22:44.571Z,95.30
2018-05-23T01:25:10.561Z,98.00
2018-05-23T01:27:36.582Z,98.50
2018-05-23T01:30:02.517Z,98.00
2018-05-23T01:32:28.491Z,98.50
2018-05-23T01:34:54.430Z,99.90
2018-05-23T01:37:20.434Z,99.90
2018-05-23T01:39:46.389Z,99.90
2018-05-23T01:42:12.359Z,99.90
2018-05-23T01:44:39.105Z,99.90
2018-05-23T01:47:05.835Z,99.90
2018-05-23T01:49:31.811Z,99.90
2018-05-23T01:51:57.790Z,99.90
2018-05-23T01:54:23.774Z,99.90
2018-05-23T01:56:50.457Z,99.90
2018-05-23T01:59:16.426Z,99.90
2018-05-23T02:01:42.417Z,99.90
2018-05-23T02:04:08.431Z,99.90
2018-05-23T02:06:35.159Z,99.90
2018-05-23T02:09:01.110Z,99.90
2018-05-23T02:11:27.830Z,99.90
2018-05-23T02:13:53.812Z,99.90
2018-05-23T02:16:20.499Z,99.90
2018-05-23T02:18:46.486Z,99.90
2018-05-23T02:21:13.200Z,99.90
2018-05-23T02:23:39.366Z,99.90
2018-05-23T02:26:05.335Z,99.90
2018-05-23T02:28:31.295Z,99.90
2018-05-23T02:30:58.168Z,99.90
2018-05-23T02:33:31.199Z,99.90
2018-05-23T02:35:57.179Z,99.90
2018-05-23T02:38:23.184Z,99.90
2018-05-23T02:40:49.925Z,99.90
2018-05-23T02:43:15.876Z,99.90
2018-05-23T02:45:42.636Z,99.90
2018-05-23T02:48:08.627Z,99.90
2018-05-23T02:50:34.742Z,99.90
2018-05-23T02:53:00.687Z,99.90
2018-05-23T02:55:26.665Z,99.90
2018-05-23T02:57:52.630Z,99.90
2018-05-23T03:00:18.591Z,99.90
2018-05-23T03:02:44.692Z,99.90
2018-05-23T03:05:11.457Z,99.90
2018-05-23T03:07:38.016Z,99.90
2018-05-23T03:10:04.043Z,99.90
2018-05-23T03:12:30.007Z,99.90
2018-05-23T03:14:55.983Z,99.90
2018-05-23T03:17:22.672Z,99.90
2018-05-23T03:19:48.655Z,99.90
2018-05-23T03:22:14.638Z,99.90
2018-05-23T03:24:41.379Z,99.90
2018-05-23T03:27:08.105Z,99.90
2018-05-23T03:29:34.090Z,99.90
2018-05-23T03:32:00.083Z,99.90
2018-05-23T03:34:26.046Z,99.90
2018-05-23T03:36:52.763Z,99.90
2018-05-23T03:39:18.719Z,99.90
2018-05-23T03:41:45.441Z,99.90
2018-05-23T03:44:11.416Z,99.90
2018-05-23T03:46:38.152Z,99.90
2018-05-23T03:49:04.868Z,99.90
2018-05-23T03:51:30.862Z,99.90
2018-05-23T03:53:57.555Z,99.90
2018-05-23T03:56:23.558Z,99.90
2018-05-23T03:58:50.355Z,99.90
2018-05-23T04:01:28.833Z,99.90
2018-05-23T04:04:08.103Z,99.90
2018-05-23T04:06:46.411Z,99.90
2018-05-23T04:09:13.155Z,99.90
2018-05-23T04:11:39.878Z,99.90
2018-05-23T04:14:05.856Z,99.90
2018-05-23T04:16:32.555Z,99.90
2018-05-23T04:18:58.547Z,99.90
2018-05-23T04:21:25.275Z,99.90
2018-05-23T04:23:51.227Z,99.90
2018-05-23T04:26:17.931Z,99.90
2018-05-23T04:28:43.886Z,99.90
2018-05-23T04:31:09.893Z,99.90
2018-05-23T04:33:35.843Z,99.90
2018-05-23T04:36:01.839Z,99.90
2018-05-23T04:38:27.787Z,99.90
2018-05-23T04:40:53.731Z,99.90
2018-05-23T04:43:19.703Z,99.90
2018-05-23T04:45:45.670Z,99.90
2018-05-23T04:48:12.455Z,99.90
2018-05-23T04:50:38.450Z,99.90
2018-05-23T04:53:04.502Z,99.90
2018-05-23T04:55:31.234Z,99.90
2018-05-23T04:57:57.178Z,99.90
2018-05-23T05:00:23.895Z,99.90
2018-05-23T05:02:50.618Z,99.90
2018-05-23T05:05:16.591Z,99.90
2018-05-23T05:07:42.566Z,99.90
2018-05-23T05:10:08.659Z,99.90
2018-05-23T05:12:35.327Z,99.90
2018-05-23T05:15:01.302Z,99.90
2018-05-23T05:17:27.284Z,99.90
2018-05-23T05:19:53.255Z,99.90
2018-05-23T05:22:20.023Z,99.90
2018-05-23T05:24:46.758Z,99.90
2018-05-23T05:27:12.741Z,99.90
2018-05-23T05:29:38.727Z,99.90
2018-05-23T05:32:04.707Z,99.90
2018-05-23T05:34:30.662Z,99.90
2018-05-23T05:36:56.645Z,99.90
2018-05-23T05:39:23.338Z,99.90
2018-05-23T05:41:49.320Z,99.90
2018-05-23T05:44:15.276Z,99.90
2018-05-23T05:46:41.999Z,99.90
2018-05-23T05:49:07.999Z,99.90
2018-05-23T05:51:33.959Z,99.90
2018-05-23T05:54:00.334Z,99.90
2018-05-23T05:56:26.392Z,99.90
2018-05-23T05:58:52.443Z,99.90
2018-05-23T06:01:18.411Z,99.90
2018-05-23T06:03:44.424Z,99.90
2018-05-23T06:06:10.367Z,99.90
2018-05-23T06:08:36.311Z,99.90
2018-05-23T06:11:02.286Z,99.90
2018-05-23T06:13:28.230Z,99.90
2018-05-23T06:15:54.231Z,99.90
2018-05-23T06:18:20.197Z,99.90
2018-05-23T06:20:46.183Z,99.90
2018-05-23T06:23:12.141Z,99.90
2018-05-23T06:25:39.153Z,99.90
2018-05-23T06:28:05.131Z,99.90
2018-05-23T06:30:31.178Z,99.90
2018-05-23T06:32:57.813Z,99.90
2018-05-23T06:35:24.093Z,99.90
2018-05-23T06:37:50.153Z,99.90
2018-05-23T06:40:16.035Z,99.90
2018-05-23T06:42:42.187Z,99.90
2018-05-23T06:45:08.501Z,99.90
2018-05-23T06:47:34.478Z,99.90
2018-05-23T06:50:00.495Z,99.90
2018-05-23T06:52:26.442Z,99.90
2018-05-23T06:54:52.378Z,99.90
2018-05-23T06:57:18.327Z,99.90
2018-05-23T06:59:44.307Z,99.90
2018-05-23T07:02:10.331Z,99.90
2018-05-23T07:04:36.917Z,99.90
2018-05-23T07:07:02.883Z,99.90
2018-05-23T07:09:28.831Z,99.90
2018-05-23T07:11:55.624Z,99.90
2018-05-23T07:14:22.317Z,99.90
2018-05-23T07:16:48.298Z,99.90
2018-05-23T07:19:14.286Z,99.90
2018-05-23T07:21:40.318Z,99.90
2018-05-23T07:24:06.331Z,99.90
2018-05-23T07:26:32.248Z,99.90
2018-05-23T07:28:58.294Z,99.90
2018-05-23T07:31:24.262Z,99.90
2018-05-23T07:33:50.263Z,99.90
2018-05-23T07:36:16.212Z,99.90
2018-05-23T07:38:42.174Z,94.30
2018-05-23T07:41:08.167Z,94.80
2018-05-23T07:43:34.114Z,94.00
2018-05-23T07:46:00.134Z,86.60
2018-05-23T07:48:26.259Z,84.80
2018-05-23T07:50:53.006Z,81.00
2018-05-23T07:53:19.683Z,82.00
2018-05-23T07:55:46.259Z,82.00
2018-05-23T07:58:12.283Z,79.50
2018-05-23T08:00:38.364Z,78.40
2018-05-23T08:03:05.117Z,78.90
2018-05-23T08:05:31.056Z,78.80
2018-05-23T08:07:57.093Z,74.60
2018-05-23T08:10:23.802Z,74.70
2018-05-23T08:12:49.787Z,74.60
2018-05-23T08:15:15.783Z,72.50
2018-05-23T08:17:41.730Z,72.40
2018-05-23T08:20:22.962Z,72.00
2018-05-23T08:22:49.673Z,71.20
2018-05-23T08:25:15.654Z,71.20
2018-05-23T08:27:42.367Z,71.10
2018-05-23T08:30:08.380Z,71.10
2018-05-23T08:32:34.367Z,70.70
2018-05-23T08:35:01.286Z,72.50
2018-05-23T08:37:27.259Z,69.60
2018-05-23T08:39:53.325Z,67.60
2018-05-23T08:42:20.006Z,68.70
2018-05-23T08:44:45.988Z,68.80
2018-05-23T08:47:12.000Z,66.40
2018-05-23T08:49:38.052Z,68.50
2018-05-23T08:52:04.115Z,65.50
2018-05-23T08:54:30.842Z,69.20
2018-05-23T08:56:56.828Z,69.10
2018-05-23T08:59:22.775Z,66.10
2018-05-23T09:01:48.746Z,68.00
2018-05-23T09:04:14.699Z,69.30
2018-05-23T09:06:40.711Z,66.30
2018-05-23T09:09:06.671Z,65.50
2018-05-23T09:11:32.610Z,67.40
2018-05-23T09:13:59.334Z,64.70
2018-05-23T09:16:32.366Z,64.60
2018-05-23T09:18:59.079Z,65.20
2018-05-23T09:21:25.067Z,65.10
2018-05-23T09:23:51.790Z,66.90
2018-05-23T09:26:17.771Z,66.90
2018-05-23T09:28:43.771Z,63.20
2018-05-23T09:31:09.766Z,63.70
2018-05-23T09:33:35.790Z,61.30
2018-05-23T09:36:01.739Z,61.60
2018-05-23T09:38:27.725Z,59.80
2018-05-23T09:40:54.432Z,59.70
2018-05-23T09:43:20.418Z,59.70
2018-05-23T09:45:47.113Z,60.00
2018-05-23T09:48:13.084Z,60.00
2018-05-23T09:50:39.118Z,58.50
2018-05-23T09:53:05.139Z,59.00
2018-05-23T09:55:31.130Z,58.20
2018-05-23T09:57:57.895Z,57.50
2018-05-23T10:00:24.818Z,57.40
2018-05-23T10:02:50.803Z,56.60
2018-05-23T10:05:16.817Z,56.10
2018-05-23T10:07:43.538Z,66.30
2018-05-23T10:10:09.508Z,56.90
2018-05-23T10:12:35.535Z,57.40
2018-05-23T10:15:02.227Z,56.00
2018-05-23T10:17:28.210Z,56.00
2018-05-23T10:19:54.171Z,56.00
2018-05-23T10:22:20.186Z,54.60
2018-05-23T10:24:46.145Z,55.10
2018-05-23T10:27:12.887Z,55.50
2018-05-23T10:29:39.679Z,55.20
2018-05-23T10:32:05.636Z,55.20
2018-05-23T10:34:31.626Z,56.10
2018-05-23T10:36:57.583Z,55.30
2018-05-23T10:39:23.595Z,55.40
2018-05-23T10:41:49.549Z,55.80
2018-05-23T10:44:15.507Z,56.10
2018-05-23T10:46:41.530Z,56.80
2018-05-23T10:49:07.518Z,56.20
2018-05-23T10:51:34.391Z,57.10
2018-05-23T10:54:00.287Z,57.10
2018-05-23T10:56:26.338Z,57.30
2018-05-23T10:58:53.070Z,57.40
2018-05-23T11:01:19.019Z,56.80
2018-05-23T11:03:44.995Z,57.10
2018-05-23T11:06:11.118Z,56.90
2018-05-23T11:08:37.182Z,57.10
2018-05-23T11:11:03.202Z,56.40
2018-05-23T11:13:29.162Z,56.60
2018-05-23T11:15:55.183Z,56.90
2018-05-23T11:18:21.135Z,57.50
2018-05-23T11:20:47.127Z,57.80
2018-05-23T11:23:13.850Z,58.00
2018-05-23T11:25:40.023Z,58.00
2018-05-23T11:28:06.743Z,59.10
2018-05-23T11:30:32.739Z,58.40
2018-05-23T11:32:58.698Z,58.40
2018-05-23T11:35:24.650Z,58.40
2018-05-23T11:37:50.648Z,58.40
2018-05-23T11:40:16.599Z,58.40
2018-05-23T11:42:42.601Z,58.60
2018-05-23T11:45:09.329Z,59.10
2018-05-23T11:47:35.339Z,59.10
2018-05-23T11:50:01.330Z,58.90
2018-05-23T11:52:28.096Z,59.10
2018-05-23T11:54:54.064Z,59.10
2018-05-23T11:57:20.075Z,59.70
2018-05-23T11:59:46.058Z,59.40
2018-05-23T12:02:12.090Z,59.70
2018-05-23T12:04:38.285Z,60.00
2018-05-23T12:07:04.304Z,60.40
2018-05-23T12:09:31.044Z,60.80
2018-05-23T12:11:56.999Z,59.90
2018-05-23T12:14:23.776Z,60.30
2018-05-23T12:16:49.750Z,60.10
2018-05-23T12:19:15.747Z,60.10
2018-05-23T12:21:41.850Z,59.80
2018-05-23T12:24:07.853Z,61.30
2018-05-23T12:26:33.831Z,61.40
2018-05-23T12:29:00.559Z,60.80
2018-05-23T12:31:26.537Z,60.80
2018-05-23T12:33:52.526Z,61.10
2018-05-23T12:36:18.492Z,60.90
2018-05-23T12:38:45.224Z,60.80
2018-05-23T12:41:11.203Z,60.70
2018-05-23T12:43:38.241Z,60.80
2018-05-23T12:46:04.956Z,60.30
2018-05-23T12:48:30.942Z,60.20
2018-05-23T12:50:57.632Z,61.00
2018-05-23T12:53:24.430Z,61.00
2018-05-23T12:55:50.379Z,60.10
2018-05-23T12:58:17.096Z,58.80
2018-05-23T13:00:43.056Z,58.80
2018-05-23T13:03:09.064Z,59.70
2018-05-23T13:05:35.061Z,60.30
2018-05-23T13:08:01.027Z,57.90
2018-05-23T13:10:27.027Z,56.30
2018-05-23T13:12:53.018Z,55.00
2018-05-23T13:15:19.003Z,53.50
2018-05-23T13:17:45.059Z,54.40
2018-05-23T13:20:11.070Z,53.20
2018-05-23T13:22:37.069Z,55.10
2018-05-23T13:25:03.035Z,54.50
2018-05-23T13:27:29.515Z,54.50
2018-05-23T14:01:56.739Z,53.20
2018-05-23T14:04:23.483Z,53.80
2018-05-23T14:06:50.196Z,54.00
2018-05-23T14:09:16.194Z,53.90
2018-05-23T14:11:42.158Z,54.20
2018-05-23T14:14:08.146Z,53.90
2018-05-23T14:16:34.872Z,54.30
2018-05-23T14:19:00.876Z,54.30
2018-05-23T14:21:26.847Z,54.40
2018-05-23T14:23:52.875Z,55.20
2018-05-23T14:26:18.847Z,54.50
2018-05-23T14:28:45.588Z,53.70
2018-05-23T14:31:11.579Z,53.70
2018-05-23T14:33:37.586Z,53.30
2018-05-23T14:36:03.575Z,54.60
2018-05-23T14:38:29.531Z,54.30
2018-05-23T14:40:55.610Z,54.30
2018-05-23T14:43:21.671Z,53.20
2018-05-23T14:45:47.595Z,54.20
2018-05-23T14:48:13.606Z,54.30
2018-05-23T14:50:40.347Z,52.40
2018-05-23T14:53:07.090Z,51.80
2018-05-23T14:55:33.807Z,51.50
2018-05-23T14:57:59.776Z,51.50
2018-05-23T15:00:25.836Z,51.10
2018-05-23T15:02:52.599Z,49.50
2018-05-23T15:05:18.588Z,49.50
2018-05-23T15:07:44.553Z,49.50
2018-05-23T15:10:11.311Z,50.30
2018-05-23T15:12:38.027Z,49.70
2018-05-23T15:15:03.982Z,49.60
2018-05-23T15:17:29.986Z,48.20
2018-05-23T15:19:56.051Z,48.80
2018-05-23T15:22:22.011Z,49.00
2018-05-23T15:24:48.736Z,47.80
2018-05-23T15:27:14.730Z,47.80
2018-05-23T15:29:40.721Z,47.60
2018-05-23T15:32:06.714Z,48.40
2018-05-23T15:34:32.683Z,48.00
2018-05-23T15:36:58.801Z,47.90
2018-05-23T15:39:24.778Z,48.10
2018-05-23T15:41:51.544Z,48.10
2018-05-23T15:44:18.287Z,48.60
2018-05-23T15:46:44.981Z,47.50
2018-05-23T15:49:11.079Z,47.60
2018-05-23T15:51:37.778Z,48.60
2018-05-23T15:54:03.838Z,48.50
2018-05-23T15:56:29.819Z,48.40
2018-05-23T15:58:55.911Z,47.40
2018-05-23T16:01:21.879Z,47.50
2018-05-23T16:03:48.575Z,47.90
2018-05-23T16:06:14.569Z,47.80
2018-05-23T16:08:41.275Z,47.80
2018-05-23T16:11:07.306Z,47.80
2018-05-23T16:13:33.262Z,48.50
2018-05-23T16:15:59.293Z,49.70
2018-05-23T16:18:25.260Z,49.50
2018-05-23T16:20:52.023Z,49.50
2018-05-23T16:23:18.730Z,49.70
2018-05-23T16:25:44.721Z,49.70
2018-05-23T16:28:10.814Z,49.80
2018-05-23T16:30:36.806Z,50.10
2018-05-23T16:33:02.824Z,50.10
2018-05-23T16:35:29.584Z,49.80
2018-05-23T16:37:55.566Z,49.80
2018-05-23T16:40:21.537Z,50.30
2018-05-23T16:42:47.515Z,50.20
2018-05-23T16:45:13.487Z,50.90
2018-05-23T16:47:39.501Z,50.20
2018-05-23T16:50:05.500Z,50.40
2018-05-23T16:52:32.217Z,51.00
2018-05-23T16:54:58.239Z,50.90
2018-05-23T16:57:24.253Z,50.10
2018-05-23T16:59:50.224Z,50.60
2018-05-23T17:02:16.206Z,50.10
2018-05-23T17:04:42.339Z,50.60
2018-05-23T17:07:08.318Z,51.70
2018-05-23T17:09:34.326Z,52.60
2018-05-23T17:12:00.295Z,53.70
2018-05-23T17:14:26.388Z,53.20
2018-05-23T17:16:53.086Z,53.60
2018-05-23T17:19:19.051Z,53.50
2018-05-23T17:21:45.027Z,53.30
2018-05-23T17:24:11.195Z,53.20
2018-05-23T17:26:37.202Z,52.90
2018-05-23T17:29:03.213Z,53.20
2018-05-23T17:31:29.963Z,53.80
2018-05-23T17:33:56.737Z,54.60
2018-05-23T17:36:22.763Z,54.00
2018-05-23T17:38:49.454Z,55.10
2018-05-23T17:41:15.471Z,55.10
2018-05-23T17:43:41.525Z,55.20
2018-05-23T17:46:08.362Z,55.20
2018-05-23T17:48:34.351Z,55.10
2018-05-23T17:51:00.389Z,55.50
2018-05-23T17:53:26.358Z,55.40
2018-05-23T17:55:53.063Z,56.60
2018-05-23T17:58:19.175Z,56.60
2018-05-23T18:00:45.159Z,55.70
2018-05-23T18:03:11.190Z,57.40
2018-05-23T18:05:37.146Z,57.30
2018-05-23T18:08:03.135Z,56.70
2018-05-23T18:10:29.093Z,58.00
2018-05-23T18:12:55.106Z,57.90
2018-05-23T18:15:21.055Z,58.30
2018-05-23T18:17:47.081Z,57.80
2018-05-23T18:20:13.086Z,58.40
2018-05-23T18:22:39.851Z,59.40
2018-05-23T18:25:05.888Z,59.40
2018-05-23T18:27:32.287Z,60.20
2018-05-23T18:29:58.323Z,60.40
2018-05-23T18:32:24.328Z,60.90
2018-05-23T18:34:50.349Z,61.00
2018-05-23T18:37:16.375Z,62.30
2018-05-23T18:39:42.376Z,62.40
2018-05-23T18:42:09.263Z,62.90
2018-05-23T18:44:36.236Z,63.40
2018-05-23T18:47:02.213Z,63.40
2018-05-23T18:49:28.256Z,63.10
2018-05-23T18:51:54.914Z,64.10
2018-05-23T18:54:20.885Z,64.10
2018-05-23T18:56:47.630Z,64.90
2018-05-23T18:59:14.374Z,66.10
2018-05-23T19:01:41.092Z,65.00
2018-05-23T19:04:07.139Z,65.10
2018-05-23T19:06:33.101Z,65.20
2018-05-23T19:08:59.155Z,66.00
2018-05-23T19:11:25.116Z,65.60
2018-05-23T19:13:51.062Z,65.10
2018-05-23T19:16:17.051Z,65.30
2018-05-23T19:18:43.914Z,66.50
2018-05-23T19:21:10.825Z,66.70
2018-05-23T19:23:36.830Z,66.60
2018-05-23T19:26:02.927Z,66.80
2018-05-23T19:28:28.927Z,66.60
2018-05-23T19:30:54.915Z,67.10
2018-05-23T19:33:21.623Z,67.40
2018-05-23T19:35:47.663Z,67.30
2018-05-23T19:38:14.475Z,67.00
2018-05-23T19:40:40.652Z,67.20
2018-05-23T19:43:06.730Z,67.80
2018-05-23T19:45:32.720Z,67.70
2018-05-23T19:47:58.702Z,67.90
2018-05-23T19:50:24.739Z,67.80
2018-05-23T19:52:50.865Z,68.20
2018-05-23T19:55:16.658Z,67.80
2018-05-23T19:57:42.652Z,67.60
2018-05-23T20:00:09.391Z,68.30
2018-05-23T20:02:35.375Z,68.30
2018-05-23T20:05:02.102Z,67.50
2018-05-23T20:07:28.872Z,67.60
2018-05-23T20:09:54.838Z,67.60
2018-05-23T20:12:20.831Z,67.30
2018-05-23T20:14:47.543Z,66.60
2018-05-23T20:17:13.547Z,66.50
2018-05-23T20:19:39.620Z,65.90
2018-05-23T20:22:05.795Z,65.50
2018-05-23T20:24:32.507Z,65.30
2018-05-23T20:26:58.509Z,65.30
2018-05-23T20:29:24.526Z,65.20
2018-05-23T20:31:51.260Z,64.30
2018-05-23T20:34:17.223Z,64.30
2018-05-23T20:36:43.987Z,62.80
2018-05-23T20:39:10.342Z,62.70
2018-05-23T20:41:36.338Z,63.10
2018-05-23T20:44:02.318Z,62.30
2018-05-23T20:46:28.331Z,62.00
2018-05-23T20:48:55.043Z,59.90
2018-05-23T20:51:21.755Z,59.80
2018-05-23T20:53:48.077Z,60.70
2018-05-23T20:56:14.822Z,58.80
2018-05-23T20:58:41.022Z,58.80
2018-05-23T21:01:06.908Z,58.40
2018-05-23T21:03:33.600Z,58.00
2018-05-23T21:05:59.585Z,58.00
2018-05-23T21:08:26.335Z,57.40
2018-05-23T21:10:52.288Z,57.40
2018-05-23T21:13:19.020Z,57.60
2018-05-23T21:15:45.015Z,57.60
2018-05-23T21:18:11.003Z,57.50
2018-05-23T21:20:37.798Z,57.50
2018-05-23T21:23:03.811Z,57.50
2018-05-23T21:25:29.830Z,57.70
2018-05-23T21:27:56.674Z,57.80
2018-05-23T21:30:22.589Z,57.80
2018-05-23T21:32:48.570Z,58.20
2018-05-23T21:35:15.311Z,58.30
2018-05-23T21:37:42.071Z,58.30
2018-05-23T21:40:08.811Z,58.20
2018-05-23T21:42:34.790Z,58.80
2018-05-23T21:45:00.776Z,58.20
2018-05-23T21:47:26.787Z,59.00
2018-05-23T21:49:52.796Z,58.70
2018-05-23T21:52:18.770Z,58.70
2018-05-23T21:54:44.788Z,58.80
2018-05-23T21:57:10.770Z,59.10
2018-05-23T21:59:36.999Z,59.20
2018-05-23T22:02:02.967Z,59.30
2018-05-23T22:04:28.997Z,59.50
2018-05-23T22:06:55.695Z,59.70
2018-05-23T22:09:21.695Z,59.70
2018-05-23T22:11:47.719Z,59.70
2018-05-23T22:14:14.593Z,59.90
2018-05-23T22:16:40.626Z,59.90
2018-05-23T22:19:06.620Z,59.80
2018-05-23T22:21:32.582Z,59.80
2018-05-23T22:23:59.315Z,59.90
2018-05-23T22:26:25.307Z,59.90
2018-05-23T22:28:51.276Z,60.10
2018-05-23T22:31:17.298Z,61.30
2018-05-23T22:33:43.287Z,60.60
2018-05-23T22:36:10.039Z,60.30
2018-05-23T22:38:36.775Z,60.80
2018-05-23T22:41:02.736Z,60.80
2018-05-23T22:43:29.551Z,61.10
2018-05-23T22:45:55.522Z,61.00
2018-05-23T22:48:22.242Z,61.20
2018-05-23T22:50:48.306Z,61.10
2018-05-23T22:53:15.206Z,61.40
2018-05-23T22:55:41.585Z,61.40
2018-05-23T22:58:07.607Z,62.00
2018-05-23T23:00:33.681Z,61.70
2018-05-23T23:03:00.390Z,62.10
2018-05-23T23:05:26.380Z,61.20
2018-05-23T23:07:53.079Z,61.80
2018-05-23T23:10:19.066Z,61.80
2018-05-23T23:12:45.802Z,61.50
2018-05-23T23:15:11.920Z,61.30
2018-05-23T23:17:37.899Z,61.00
2018-05-23T23:20:04.627Z,61.90
2018-05-23T23:22:37.768Z,61.80
2018-05-23T23:25:03.768Z,62.50
2018-05-23T23:27:29.740Z,62.00
2018-05-23T23:29:55.767Z,62.70
2018-05-23T23:32:22.528Z,62.30
2018-05-23T23:34:48.555Z,62.30
2018-05-23T23:37:15.288Z,62.60
2018-05-23T23:39:41.294Z,62.60
2018-05-23T23:42:07.288Z,62.20
2018-05-23T23:44:34.066Z,62.90
2018-05-23T23:47:00.084Z,62.80
2018-05-23T23:49:26.055Z,63.00
2018-05-23T23:51:52.023Z,63.00
2018-05-23T23:54:18.015Z,62.80
2018-05-23T23:56:44.042Z,63.10
2018-05-23T23:59:10.086Z,63.30
